Time;durP1;ratioP1;P1;durP2;ratioP2;P2;SDS_P1;SDS_P2;PMS_P1;PMS_P2;Temp;Humidity;BMP_temperature;BMP_pressure;BME280_temperature;BME280_humidity;BME280_pressure;Samples;Min_cycle;Max_cycle;Signal;HPM_P1;HPM_P2
2022/01/30 00:02:08;;;;;;;39.37;2.30;;;;;;;8.08;100.00;98285.91;5077555;28;20646;-60
2022/01/30 00:04:35;;;;;;;42.27;2.23;;;;;;;8.13;100.00;98277.22;5070036;28;20611;-61
2022/01/30 00:07:03;;;;;;;30.93;2.10;;;;;;;8.15;100.00;98286.59;5067792;28;20638;-61
2022/01/30 00:09:29;;;;;;;23.13;1.33;;;;;;;8.08;100.00;98285.91;5074358;28;20610;-60
2022/01/30 00:11:59;;;;;;;16.20;1.37;;;;;;;8.12;100.00;98302.22;5079216;28;20590;-60
2022/01/30 00:14:29;;;;;;;21.57;1.47;;;;;;;8.05;100.00;98313.00;5074559;28;20614;-59
2022/01/30 00:17:01;;;;;;;40.77;2.30;;;;;;;8.10;100.00;98299.00;5079745;28;20645;-60
2022/01/30 00:19:34;;;;;;;27.07;1.70;;;;;;;8.12;100.00;98295.03;5082110;28;20641;-60
2022/01/30 00:22:14;;;;;;;33.13;2.50;;;;;;;8.11;100.00;98300.59;5080012;28;20653;-59
2022/01/30 00:24:48;;;;;;;32.30;1.87;;;;;;;8.05;100.00;98282.91;5085034;28;20598;-59
2022/01/30 00:27:19;;;;;;;19.97;1.87;;;;;;;8.04;100.00;98299.94;5080299;28;20605;-59
2022/01/30 00:29:46;;;;;;;43.13;2.90;;;;;;;7.99;100.00;98305.13;5074349;28;20693;-60
2022/01/30 00:32:13;;;;;;;26.10;2.03;;;;;;;8.12;100.00;98300.38;5075608;28;20640;-59
2022/01/30 00:34:39;;;;;;;13.30;1.57;;;;;;;8.05;100.00;98309.50;5075833;28;20638;-59
2022/01/30 00:37:06;;;;;;;25.30;1.80;;;;;;;8.07;100.00;98300.28;5081030;28;20606;-58
2022/01/30 00:39:33;;;;;;;31.03;1.63;;;;;;;8.00;100.00;98309.44;5080495;28;20615;-59
2022/01/30 00:42:01;;;;;;;37.73;2.13;;;;;;;8.00;100.00;98299.59;5076156;28;20686;-59
2022/01/30 00:44:27;;;;;;;27.23;2.10;;;;;;;7.92;100.00;98297.28;5078316;28;20614;-59
2022/01/30 00:46:55;;;;;;;81.30;4.80;;;;;;;7.92;100.00;98302.63;5073624;28;20634;-59
2022/01/30 00:49:22;;;;;;;40.53;2.23;;;;;;;7.93;100.00;98303.44;5082879;28;20675;-59
2022/01/30 00:51:48;;;;;;;48.63;2.80;;;;;;;7.95;100.00;98306.69;5075154;28;20697;-59
2022/01/30 00:54:15;;;;;;;41.87;2.50;;;;;;;7.87;100.00;98293.75;5088160;28;20602;-59
2022/01/30 00:56:41;;;;;;;43.23;2.83;;;;;;;7.95;100.00;98312.78;5074207;28;20610;-60
2022/01/30 00:59:10;;;;;;;38.33;2.47;;;;;;;7.91;100.00;98300.22;5080304;28;20607;-59
2022/01/30 01:01:36;;;;;;;19.77;1.47;;;;;;;7.94;100.00;98311.19;5077582;28;20603;-59
2022/01/30 01:04:03;;;;;;;19.57;1.70;;;;;;;7.85;100.00;98311.78;5076583;28;20618;-59
2022/01/30 01:06:29;;;;;;;14.50;1.37;;;;;;;7.91;100.00;98322.28;5071918;28;20610;-59
2022/01/30 01:08:59;;;;;;;38.10;2.33;;;;;;;7.80;100.00;98327.66;5071453;28;20614;-59
2022/01/30 01:20:53;;;;;;;18.20;1.53;;;;;;;7.99;100.00;98339.72;5070325;28;21205;-59
2022/01/30 01:25:17;;;;;;;12.47;1.33;;;;;;;7.83;100.00;98337.81;5079870;28;20617;-59
2022/01/30 01:27:44;;;;;;;22.30;1.30;;;;;;;7.78;100.00;98325.22;5080011;28;20652;-59
2022/01/30 01:30:13;;;;;;;16.10;1.20;;;;;;;7.84;100.00;98331.44;5080446;28;20638;-59
2022/01/30 01:32:40;;;;;;;18.77;1.23;;;;;;;7.83;100.00;98330.63;5078017;28;20625;-60
2022/01/30 01:35:07;;;;;;;22.00;1.57;;;;;;;7.76;100.00;98329.16;5080114;28;20618;-59
2022/01/30 01:37:34;;;;;;;14.30;1.30;;;;;;;7.82;100.00;98334.34;5074271;28;20599;-60
2022/01/30 01:40:00;;;;;;;19.43;1.33;;;;;;;7.85;100.00;98333.88;5078836;28;20614;-59
2022/01/30 01:42:31;;;;;;;19.90;1.30;;;;;;;7.90;100.00;98322.50;5079668;28;20673;-59
2022/01/30 01:44:59;;;;;;;23.17;1.53;;;;;;;7.86;100.00;98308.09;5079639;28;20598;-59
2022/01/30 01:47:31;;;;;;;29.47;1.80;;;;;;;7.89;100.00;98320.91;5079764;28;20686;-59
2022/01/30 01:49:58;;;;;;;21.03;1.83;;;;;;;7.76;100.00;98327.31;5079608;28;20630;-59
2022/01/30 01:52:26;;;;;;;28.27;1.43;;;;;;;7.93;100.00;98327.38;5079632;28;20632;-59
2022/01/30 01:54:54;;;;;;;26.47;1.83;;;;;;;7.83;100.00;98324.53;5071261;28;20634;-59
2022/01/30 01:57:23;;;;;;;22.53;1.33;;;;;;;7.92;100.00;98315.91;5083236;28;20617;-59
2022/01/30 01:59:50;;;;;;;38.87;1.87;;;;;;;7.92;100.00;98323.88;5082145;28;20608;-58
2022/01/30 02:02:17;;;;;;;39.13;1.77;;;;;;;7.91;100.00;98313.50;5074850;28;20653;-59
2022/01/30 02:04:46;;;;;;;43.97;2.27;;;;;;;7.82;100.00;98306.94;5082855;28;20598;-59
2022/01/30 02:07:44;;;;;;;19.37;1.13;;;;;;;7.89;100.00;98311.06;5071405;28;20611;-59
2022/01/30 02:10:21;;;;;;;41.67;2.10;;;;;;;7.79;100.00;98313.53;5082434;28;20678;-59
2022/01/30 02:12:51;;;;;;;23.37;1.47;;;;;;;7.84;100.00;98326.13;5082519;28;20635;-60
2022/01/30 02:15:44;;;;;;;44.57;2.17;;;;;;;7.89;100.00;98323.56;5079162;28;20689;-59
2022/01/30 02:24:02;;;;;;;48.97;2.73;;;;;;;7.84;100.00;98323.47;5079329;28;20775;-58
2022/01/30 02:26:35;;;;;;;50.93;3.10;;;;;;;7.79;100.00;98326.03;5079038;28;20641;-58
2022/01/30 02:29:02;;;;;;;30.57;2.13;;;;;;;7.85;100.00;98330.41;5081075;28;20602;-60
2022/01/30 02:31:29;;;;;;;43.53;3.53;;;;;;;7.84;100.00;98310.16;5082567;28;20605;-60
2022/01/30 02:33:55;;;;;;;36.77;2.83;;;;;;;7.78;100.00;98311.09;5080146;28;20601;-60
2022/01/30 02:36:22;;;;;;;20.37;1.60;;;;;;;7.78;100.00;98311.91;5077872;28;20602;-60
2022/01/30 02:38:48;;;;;;;30.03;1.80;;;;;;;7.70;100.00;98312.28;5079112;28;20618;-59
2022/01/30 02:41:16;;;;;;;18.70;1.53;;;;;;;7.72;100.00;98322.69;5072481;28;20606;-58
2022/01/30 02:43:55;;;;;;;41.87;2.93;;;;;;;7.78;100.00;98316.41;5078256;28;21060;-59
2022/01/30 02:46:28;;;;;;;27.73;1.73;;;;;;;7.75;100.00;98300.94;5072668;28;20646;-59
2022/01/30 02:48:58;;;;;;;51.50;3.73;;;;;;;7.77;100.00;98331.56;5074954;28;20642;-58
2022/01/30 02:51:33;;;;;;;11.20;1.83;;;;;;;7.79;100.00;98326.03;5079623;28;20636;-59
2022/01/30 02:54:05;;;;;;;23.53;1.90;;;;;;;7.76;100.00;98334.47;5077820;28;20704;-59
2022/01/30 02:56:34;;;;;;;53.20;3.60;;;;;;;7.78;100.00;98340.34;5078616;28;20618;-60
2022/01/30 02:59:01;;;;;;;12.40;1.57;;;;;;;7.69;100.00;98339.09;5083345;28;20655;-60
2022/01/30 03:01:27;;;;;;;13.97;1.30;;;;;;;7.77;100.00;98341.41;5078600;28;20641;-60
2022/01/30 03:03:54;;;;;;;34.50;2.40;;;;;;;7.78;100.00;98332.38;5074305;28;20674;-60
2022/01/30 03:06:20;;;;;;;23.83;1.83;;;;;;;7.71;100.00;98337.00;5076795;28;20650;-60
2022/01/30 03:08:47;;;;;;;24.70;2.20;;;;;;;7.76;100.00;98342.44;5071183;28;21213;-59
2022/01/30 03:11:14;;;;;;;22.03;1.93;;;;;;;7.71;100.00;98331.69;5078226;28;20594;-58
2022/01/30 03:13:41;;;;;;;21.37;2.20;;;;;;;7.84;100.00;98332.25;5077113;28;20624;-58
2022/01/30 03:16:08;;;;;;;18.17;1.67;;;;;;;7.82;100.00;98336.19;5078642;28;20607;-59
2022/01/30 03:18:36;;;;;;;15.13;1.50;;;;;;;7.83;100.00;98340.47;5077040;28;20652;-59
2022/01/30 03:21:03;;;;;;;29.60;1.87;;;;;;;7.82;100.00;98342.31;5079148;28;20656;-60
2022/01/30 03:23:30;;;;;;;18.53;2.33;;;;;;;7.76;100.00;98345.91;5083630;28;20645;-60
2022/01/30 03:25:59;;;;;;;56.33;3.23;;;;;;;7.80;100.00;98356.91;5079459;28;20613;-59
2022/01/30 03:28:26;;;;;;;56.10;3.43;;;;;;;7.80;100.00;98360.34;5076941;28;20611;-59
2022/01/30 03:30:58;;;;;;;39.77;3.00;;;;;;;7.77;100.00;98358.16;5078151;28;20602;-60
2022/01/30 03:33:26;;;;;;;43.07;2.73;;;;;;;7.77;100.00;98349.38;5075445;28;20629;-59
2022/01/30 03:35:53;;;;;;;40.60;2.70;;;;;;;7.73;100.00;98356.19;5083681;28;20622;-58
2022/01/30 03:38:20;;;;;;;48.00;3.30;;;;;;;7.83;100.00;98356.44;5077581;28;20606;-59
2022/01/30 03:40:47;;;;;;;29.97;2.80;;;;;;;7.85;100.00;98344.50;5076898;28;20629;-59
2022/01/30 03:43:14;;;;;;;44.93;3.83;;;;;;;7.80;100.00;98332.97;5066165;28;20653;-59
2022/01/30 03:45:40;;;;;;;14.37;1.40;;;;;;;7.87;100.00;98347.72;5077777;28;20685;-60
2022/01/30 03:48:08;;;;;;;20.30;2.20;;;;;;;7.79;100.00;98339.31;5080671;28;20625;-60
2022/01/30 03:50:36;;;;;;;19.93;2.03;;;;;;;7.81;100.00;98330.06;5081179;28;20745;-59
2022/01/30 03:53:02;;;;;;;38.63;2.80;;;;;;;7.86;100.00;98337.34;5080868;28;20593;-58
2022/01/30 03:55:29;;;;;;;31.23;2.67;;;;;;;7.70;100.00;98308.81;5081319;28;20606;-59
2022/01/30 03:57:56;;;;;;;58.83;4.07;;;;;;;7.91;100.00;98321.47;5079765;28;21113;-60
2022/01/30 04:00:23;;;;;;;76.77;4.90;;;;;;;7.92;100.00;98323.09;5077763;28;20607;-58
2022/01/30 04:02:49;;;;;;;51.83;3.50;;;;;;;7.87;100.00;98326.47;5077719;28;20649;-59
2022/01/30 04:05:18;;;;;;;40.30;3.00;;;;;;;7.87;100.00;98330.97;5081125;28;20602;-59
2022/01/30 04:07:46;;;;;;;35.47;2.87;;;;;;;7.84;100.00;98331.44;5081070;28;20605;-60
2022/01/30 04:10:14;;;;;;;18.73;2.10;;;;;;;7.87;100.00;98345.06;5069465;28;20645;-58
2022/01/30 04:12:41;;;;;;;28.83;2.27;;;;;;;7.78;100.00;98337.69;5077571;28;20603;-59
2022/01/30 04:15:09;;;;;;;24.10;2.80;;;;;;;7.83;100.00;98341.25;5080419;28;20633;-59
2022/01/30 04:17:36;;;;;;;50.27;3.13;;;;;;;7.76;100.00;98342.44;5080853;28;20617;-59
2022/01/30 04:20:04;;;;;;;41.23;3.33;;;;;;;7.77;100.00;98341.41;5077952;28;20607;-58
2022/01/30 04:22:31;;;;;;;54.83;3.60;;;;;;;7.80;100.00;98362.22;5077832;28;20599;-58
2022/01/30 04:24:58;;;;;;;20.87;2.30;;;;;;;7.83;100.00;98367.06;5079274;28;20611;-60
2022/01/30 04:27:25;;;;;;;21.60;2.00;;;;;;;7.73;100.00;98367.66;5081046;28;20602;-59
2022/01/30 04:29:52;;;;;;;38.23;3.07;;;;;;;7.78;100.00;98372.25;5078731;28;20620;-59
2022/01/30 04:32:19;;;;;;;17.63;2.03;;;;;;;7.79;100.00;98371.22;5077176;28;20625;-60
2022/01/30 04:34:54;;;;;;;33.70;2.80;;;;;;;7.84;100.00;98373.97;5077230;28;20598;-60
2022/01/30 04:37:27;;;;;;;9.90;1.40;;;;;;;7.78;100.00;98373.06;5070334;28;20602;-59
2022/01/30 04:54:24;;;;;;;24.60;2.67;;;;;;;7.76;100.00;98353.09;5080684;28;20608;-60
2022/01/30 04:56:55;;;;;;;32.07;2.50;;;;;;;7.77;100.00;98357.38;5073039;28;20630;-60
2022/01/30 04:59:43;;;;;;;25.20;1.73;;;;;;;7.75;100.00;98354.13;5074103;28;20621;-60
2022/01/30 05:02:26;;;;;;;22.40;1.73;;;;;;;7.75;100.00;98348.78;5084120;28;20655;-61
2022/01/30 05:05:07;;;;;;;12.07;1.67;;;;;;;7.82;100.00;98344.16;5083285;28;20605;-59
2022/01/30 05:07:37;;;;;;;55.60;3.33;;;;;;;7.81;100.00;98354.00;5080820;28;20583;-60
2022/01/30 05:10:04;;;;;;;24.60;2.00;;;;;;;7.78;100.00;98357.13;5083096;28;20637;-60
2022/01/30 05:12:40;;;;;;;46.63;3.33;;;;;;;7.77;100.00;98358.16;5083953;28;20606;-60
2022/01/30 05:15:08;;;;;;;36.70;3.80;;;;;;;7.75;100.00;98360.25;5081319;28;20645;-60
2022/01/30 05:17:35;;;;;;;45.73;2.90;;;;;;;7.78;100.00;98353.66;5080484;28;20622;-59
2022/01/30 05:20:03;;;;;;;24.17;2.10;;;;;;;7.74;100.00;98355.94;5082406;28;20598;-60
2022/01/30 05:22:30;;;;;;;49.07;3.13;;;;;;;7.62;100.00;98355.16;5084019;28;20606;-59
2022/01/30 05:24:57;;;;;;;13.07;1.53;;;;;;;7.68;100.00;98348.91;5083256;28;20705;-58
2022/01/30 05:27:24;;;;;;;24.17;2.20;;;;;;;7.70;100.00;98352.16;5083678;28;20620;-58
2022/01/30 05:29:53;;;;;;;17.90;1.67;;;;;;;7.61;100.00;98349.03;5074318;28;20618;-59
2022/01/30 05:32:20;;;;;;;21.60;1.83;;;;;;;7.68;100.00;98364.88;5082852;28;20625;-59
2022/01/30 05:34:47;;;;;;;41.70;3.07;;;;;;;7.64;100.00;98377.03;5083536;28;21267;-60
2022/01/30 05:37:17;;;;;;;18.00;2.40;;;;;;;7.54;100.00;98360.84;5072203;28;20605;-59
2022/01/30 05:39:45;;;;;;;27.03;2.70;;;;;;;7.63;100.00;98369.28;5080122;28;20624;-60
2022/01/30 05:42:13;;;;;;;19.47;2.50;;;;;;;7.58;100.00;98356.69;5083698;28;20609;-59
2022/01/30 05:44:46;;;;;;;42.80;3.03;;;;;;;7.57;100.00;98355.88;5083494;28;20644;-59
2022/01/30 05:47:23;;;;;;;11.30;1.70;;;;;;;7.49;100.00;98361.53;5071753;28;20611;-59
2022/01/30 05:49:50;;;;;;;32.43;2.50;;;;;;;7.55;100.00;98365.91;5079900;28;20626;-58
2022/01/30 05:52:17;;;;;;;39.20;2.93;;;;;;;7.45;100.00;98380.84;5083347;28;20621;-59
2022/01/30 05:54:43;;;;;;;29.50;2.23;;;;;;;7.50;100.00;98371.13;5083266;28;20598;-58
2022/01/30 05:57:10;;;;;;;19.30;1.80;;;;;;;7.44;100.00;98380.03;5083029;28;20597;-58
2022/01/30 05:59:36;;;;;;;33.27;2.07;;;;;;;7.43;100.00;98383.72;5083156;28;21041;-60
2022/01/30 06:02:03;;;;;;;22.67;2.57;;;;;;;7.51;100.00;98404.66;5080740;28;20597;-59
2022/01/30 06:04:31;;;;;;;57.60;3.60;;;;;;;7.50;100.00;98387.06;5079527;28;20662;-60
2022/01/30 06:07:00;;;;;;;24.97;2.00;;;;;;;7.51;100.00;98379.91;5080983;28;20606;-60
2022/01/30 06:09:26;;;;;;;12.97;1.23;;;;;;;7.53;100.00;98388.47;5083014;28;20671;-60
2022/01/30 06:11:53;;;;;;;25.87;2.30;;;;;;;7.49;100.00;98393.41;5081900;28;20590;-59
2022/01/30 06:14:21;;;;;;;48.37;2.83;;;;;;;7.55;100.00;98392.50;5079469;28;20609;-59
2022/01/30 06:16:49;;;;;;;25.60;1.87;;;;;;;7.49;100.00;98400.56;5079308;28;20603;-59
2022/01/30 06:19:18;;;;;;;25.83;2.03;;;;;;;7.54;100.00;98412.16;5082776;28;20669;-61
2022/01/30 06:21:46;;;;;;;22.93;1.93;;;;;;;7.54;100.00;98404.19;5082681;28;20618;-60
2022/01/30 06:24:12;;;;;;;29.27;2.50;;;;;;;7.56;100.00;98418.03;5071407;28;20650;-60
2022/01/30 06:26:39;;;;;;;28.60;3.20;;;;;;;7.51;100.00;98407.31;5079268;28;20591;-59
2022/01/30 06:29:06;;;;;;;14.67;2.03;;;;;;;7.47;100.00;98400.00;5081743;28;20610;-59
2022/01/30 06:31:32;;;;;;;12.53;1.47;;;;;;;7.50;100.00;98421.63;5082580;28;20601;-59
2022/01/30 06:33:59;;;;;;;33.97;2.30;;;;;;;7.55;100.00;98419.06;5080714;28;20641;-59
2022/01/30 06:36:26;;;;;;;37.43;2.70;;;;;;;7.60;100.00;98426.38;5079460;28;21094;-59
2022/01/30 06:38:54;;;;;;;59.83;4.07;;;;;;;7.51;100.00;98431.22;5079924;28;20599;-59
2022/01/30 06:41:21;;;;;;;36.20;2.77;;;;;;;7.44;100.00;98419.88;5082525;28;20602;-60
2022/01/30 06:43:47;;;;;;;47.00;3.97;;;;;;;7.41;100.00;98430.16;5082049;28;20709;-58
2022/01/30 06:46:15;;;;;;;30.83;2.50;;;;;;;7.46;100.00;98431.09;5078730;28;20609;-60
2022/01/30 06:48:42;;;;;;;83.43;5.07;;;;;;;7.50;100.00;98442.88;5078359;28;20644;-59
2022/01/30 06:51:09;;;;;;;33.77;2.30;;;;;;;7.51;100.00;98455.16;5081580;28;20593;-60
2022/01/30 06:53:35;;;;;;;33.10;2.47;;;;;;;7.54;100.00;98449.38;5081940;28;20634;-58
2022/01/30 06:56:04;;;;;;;41.70;2.80;;;;;;;7.54;100.00;98451.22;5079733;28;20597;-59
2022/01/30 06:58:31;;;;;;;66.33;4.13;;;;;;;7.48;100.00;98460.09;5078461;28;21204;-60
2022/01/30 07:00:57;;;;;;;25.17;2.00;;;;;;;7.49;100.00;98457.19;5079787;28;20652;-59
2022/01/30 07:03:24;;;;;;;32.13;2.20;;;;;;;7.53;100.00;98449.59;5081980;28;20649;-59
2022/01/30 07:05:50;;;;;;;18.37;2.17;;;;;;;7.39;100.00;98450.84;5081201;28;20610;-59
2022/01/30 07:08:17;;;;;;;47.60;3.50;;;;;;;7.39;100.00;98456.16;5078406;28;20638;-60
2022/01/30 07:10:45;;;;;;;51.07;3.80;;;;;;;7.36;100.00;98452.13;5078483;28;21204;-59
2022/01/30 07:13:13;;;;;;;28.10;2.27;;;;;;;7.42;100.00;98456.53;5082016;28;20997;-61
2022/01/30 07:15:41;;;;;;;41.97;3.00;;;;;;;7.32;100.00;98450.94;5080813;28;20641;-59
2022/01/30 07:18:07;;;;;;;26.20;2.27;;;;;;;7.31;100.00;98451.16;5078737;28;20607;-60
2022/01/30 07:20:34;;;;;;;64.30;3.77;;;;;;;7.36;100.00;98446.00;5077682;28;20638;-59
2022/01/30 07:23:01;;;;;;;26.40;2.40;;;;;;;7.29;100.00;98448.75;5079861;28;20630;-59
2022/01/30 07:25:27;;;;;;;43.37;3.47;;;;;;;7.46;100.00;98452.34;5081442;28;20653;-60
2022/01/30 07:27:54;;;;;;;37.80;2.40;;;;;;;7.27;100.00;98461.44;5080198;28;20645;-59
2022/01/30 07:30:22;;;;;;;39.63;3.13;;;;;;;7.33;100.00;98451.78;5078040;28;20633;-59
2022/01/30 07:32:49;;;;;;;37.80;2.77;;;;;;;7.31;100.00;98453.81;5078142;28;20594;-60
2022/01/30 07:35:17;;;;;;;38.87;2.70;;;;;;;7.20;100.00;98447.47;5081310;28;20646;-60
2022/01/30 07:37:43;;;;;;;53.00;4.00;;;;;;;7.22;100.00;98463.97;5081293;28;20614;-59
2022/01/30 07:40:11;;;;;;;28.30;2.40;;;;;;;7.34;100.00;98458.69;5078101;28;20602;-59
2022/01/30 07:42:37;;;;;;;47.93;2.93;;;;;;;7.29;100.00;98462.03;5077667;28;20602;-59
2022/01/30 07:45:05;;;;;;;24.73;2.30;;;;;;;7.38;100.00;98463.31;5080089;28;20656;-58
2022/01/30 07:47:33;;;;;;;43.60;3.17;;;;;;;7.29;100.00;98459.38;5081123;28;20676;-59
2022/01/30 07:50:00;;;;;;;48.00;3.20;;;;;;;7.31;100.00;98453.81;5079172;28;20709;-60
2022/01/30 07:52:26;;;;;;;13.13;1.43;;;;;;;7.23;100.00;98478.06;5077817;28;20622;-59
2022/01/30 07:54:53;;;;;;;31.63;2.53;;;;;;;7.37;100.00;98474.16;5078233;28;20605;-59
2022/01/30 07:57:20;;;;;;;40.00;2.80;;;;;;;7.28;100.00;98471.03;5081172;28;20636;-59
2022/01/30 07:59:47;;;;;;;30.63;2.57;;;;;;;7.35;100.00;98498.31;5080983;28;20605;-60
2022/01/30 08:02:13;;;;;;;49.17;2.80;;;;;;;7.36;100.00;98494.63;5069468;28;20622;-60
2022/01/30 08:04:41;;;;;;;51.97;3.27;;;;;;;7.38;100.00;98508.50;5077428;28;20638;-59
2022/01/30 08:07:08;;;;;;;26.03;2.60;;;;;;;7.28;100.00;98502.91;5080319;28;20602;-59
2022/01/30 08:09:34;;;;;;;29.13;2.67;;;;;;;7.28;100.00;98513.53;5080936;28;20606;-58
2022/01/30 08:12:01;;;;;;;13.37;1.80;;;;;;;7.33;100.00;98515.53;5078945;28;21024;-59
2022/01/30 08:14:27;;;;;;;23.90;2.33;;;;;;;7.27;100.00;98517.22;5077539;28;20594;-58
2022/01/30 08:16:54;;;;;;;45.40;3.30;;;;;;;7.27;100.00;98519.09;5078233;28;20610;-59
2022/01/30 08:19:23;;;;;;;69.33;3.60;;;;;;;7.21;100.00;98512.03;5080881;28;20689;-59
2022/01/30 08:21:51;;;;;;;51.77;3.40;;;;;;;7.37;100.00;98517.50;5080208;28;20606;-59
2022/01/30 08:24:19;;;;;;;31.33;2.63;;;;;;;7.40;100.00;98511.72;5077359;28;20641;-59
2022/01/30 08:26:46;;;;;;;40.90;2.70;;;;;;;7.38;100.00;98513.81;5077266;28;20598;-61
2022/01/30 08:29:12;;;;;;;34.90;2.67;;;;;;;7.39;100.00;98526.06;5069207;28;20634;-59
2022/01/30 08:31:39;;;;;;;41.17;3.27;;;;;;;7.37;100.00;98527.31;5077630;28;20621;-59
2022/01/30 08:34:05;;;;;;;30.27;2.47;;;;;;;7.40;100.00;98535.63;5083690;28;21352;-60
2022/01/30 08:36:32;;;;;;;25.17;2.70;;;;;;;7.43;100.00;98547.66;5084488;28;20640;-60
2022/01/30 08:39:00;;;;;;;18.43;1.90;;;;;;;7.33;100.00;98542.09;5082901;28;20593;-60
2022/01/30 08:41:26;;;;;;;37.23;3.10;;;;;;;7.52;100.00;98565.72;5081124;28;20606;-59
2022/01/30 08:43:53;;;;;;;36.53;4.60;;;;;;;7.49;100.00;98568.81;5081702;28;20595;-60
2022/01/30 08:46:20;;;;;;;37.10;2.17;;;;;;;7.52;100.00;98552.41;5084450;28;20633;-59
2022/01/30 08:48:47;;;;;;;33.07;2.83;;;;;;;7.42;100.00;98546.06;5083972;28;20644;-59
2022/01/30 08:51:13;;;;;;;64.63;4.00;;;;;;;7.47;100.00;98551.50;5072844;28;20598;-60
2022/01/30 08:53:41;;;;;;;34.10;3.77;;;;;;;7.60;100.00;98552.13;5087555;28;20601;-59
2022/01/30 08:56:09;;;;;;;26.33;1.87;;;;;;;7.61;100.00;98563.56;5081350;28;20618;-58
2022/01/30 08:58:35;;;;;;;80.27;5.03;;;;;;;7.67;100.00;98549.34;5080732;28;20610;-58
2022/01/30 09:01:02;;;;;;;39.83;3.10;;;;;;;7.62;100.00;98546.56;5082938;28;20609;-58
2022/01/30 09:03:29;;;;;;;53.83;4.67;;;;;;;7.64;100.00;98571.09;5084502;28;20624;-59
2022/01/30 09:05:55;;;;;;;52.30;3.50;;;;;;;7.73;100.00;98568.91;5082798;28;20676;-60
2022/01/30 09:08:22;;;;;;;26.90;2.07;;;;;;;7.59;100.00;98574.41;5080535;28;20632;-60
2022/01/30 09:10:49;;;;;;;30.93;2.00;;;;;;;7.77;100.00;98575.38;5079480;28;20701;-59
2022/01/30 09:13:18;;;;;;;29.80;2.20;;;;;;;7.70;100.00;98569.34;5083900;28;20637;-59
2022/01/30 09:15:44;;;;;;;51.20;4.03;;;;;;;7.86;100.00;98576.66;5083860;28;20601;-59
2022/01/30 09:18:13;;;;;;;40.07;2.73;;;;;;;7.83;100.00;98571.81;5081069;28;20590;-59
2022/01/30 09:20:42;;;;;;;56.70;3.50;;;;;;;7.81;100.00;98589.81;5080567;28;20618;-60
2022/01/30 09:23:10;;;;;;;44.40;3.00;;;;;;;7.71;100.00;98586.91;5083545;28;20689;-58
2022/01/30 09:25:37;;;;;;;62.17;3.73;;;;;;;7.65;100.00;98593.13;5083719;28;20708;-59
2022/01/30 09:28:04;;;;;;;26.83;2.80;;;;;;;7.69;100.00;98607.59;5081213;28;20617;-60
2022/01/30 09:30:33;;;;;;;91.53;4.93;;;;;;;7.55;100.00;98607.78;5079980;28;20602;-59
2022/01/30 09:32:59;;;;;;;16.83;2.80;;;;;;;7.60;100.00;98623.88;5081684;28;20598;-59
2022/01/30 09:35:26;;;;;;;17.90;1.93;;;;;;;7.63;100.00;98622.63;5083433;28;20633;-59
2022/01/30 09:37:52;;;;;;;39.23;2.60;;;;;;;7.65;100.00;98628.50;5082603;28;20617;-59
2022/01/30 09:40:19;;;;;;;51.47;3.73;;;;;;;7.71;100.00;98634.75;5079919;28;21167;-59
2022/01/30 09:42:48;;;;;;;31.47;3.10;;;;;;;7.72;100.00;98625.75;5079478;28;20617;-58
2022/01/30 09:45:16;;;;;;;47.23;2.17;;;;;;;7.66;100.00;98634.63;5071893;28;20653;-59
2022/01/30 09:47:46;;;;;;;49.60;3.27;;;;;;;7.56;100.00;98632.53;5079646;28;20624;-58
2022/01/30 09:50:13;;;;;;;68.57;5.30;;;;;;;7.66;100.00;98643.44;5071382;28;20610;-61
2022/01/30 09:52:39;;;;;;;54.90;3.53;;;;;;;7.66;100.00;98648.75;5079616;28;20582;-59
2022/01/30 09:55:09;;;;;;;81.40;5.20;;;;;;;7.50;100.00;98658.16;5082028;28;20606;-60
2022/01/30 09:57:36;;;;;;;26.30;1.70;;;;;;;7.57;100.00;98640.28;5083122;28;20601;-60
2022/01/30 10:00:04;;;;;;;22.63;2.30;;;;;;;7.61;100.00;98661.91;5080975;28;20648;-59
2022/01/30 10:02:31;;;;;;;71.13;5.80;;;;;;;7.51;100.00;98658.97;5079700;28;20607;-61
2022/01/30 10:04:59;;;;;;;22.33;2.57;;;;;;;7.23;100.00;98643.59;5080837;28;20669;-60
2022/01/30 10:07:39;;;;;;;31.10;2.40;;;;;;;7.23;100.00;98656.88;5083051;28;20598;-60
2022/01/30 10:10:10;;;;;;;53.83;3.23;;;;;;;7.21;100.00;98656.28;5080229;28;20621;-61
2022/01/30 10:12:57;;;;;;;65.70;3.83;;;;;;;7.17;100.00;98659.63;5079229;28;20614;-62
2022/01/30 10:15:24;;;;;;;27.27;2.67;;;;;;;7.15;100.00;98656.38;5072353;28;21091;-62
2022/01/30 10:17:50;;;;;;;60.33;4.93;;;;;;;7.13;100.00;98653.13;5079250;28;20641;-61
2022/01/30 10:20:20;;;;;;;31.83;2.40;;;;;;;7.21;100.00;98652.84;5082671;28;20595;-62
2022/01/30 10:22:49;;;;;;;51.93;3.57;;;;;;;7.15;100.00;98659.81;5081868;28;20620;-62
2022/01/30 10:25:21;;;;;;;72.47;4.20;;;;;;;7.32;100.00;98662.69;5071159;28;20937;-61
2022/01/30 10:27:49;;;;;;;68.80;4.17;;;;;;;7.28;100.00;98672.13;5078753;28;20598;-60
2022/01/30 10:30:21;;;;;;;28.90;2.10;;;;;;;7.29;100.00;98674.59;5082363;28;20667;-61
2022/01/30 10:32:55;;;;;;;64.73;4.37;;;;;;;7.27;100.00;98671.31;5082059;28;20611;-61
2022/01/30 10:35:23;;;;;;;21.10;1.80;;;;;;;7.30;100.00;98659.47;5078940;28;20609;-61
2022/01/30 10:37:50;;;;;;;45.63;3.50;;;;;;;7.36;100.00;98653.25;5079147;28;20750;-61
2022/01/30 10:40:20;;;;;;;41.23;3.00;;;;;;;7.35;100.00;98652.44;5082579;28;20609;-61
2022/01/30 10:42:48;;;;;;;50.10;3.33;;;;;;;7.40;100.00;98652.56;5082207;28;20653;-61
2022/01/30 10:45:25;;;;;;;49.97;3.20;;;;;;;7.35;100.00;98652.44;5070602;28;20657;-61
2022/01/30 10:47:51;;;;;;;59.77;4.33;;;;;;;7.46;100.00;98654.31;5078681;28;20607;-62
2022/01/30 10:50:20;;;;;;;31.27;3.70;;;;;;;7.41;100.00;98648.88;5081788;28;20616;-60
2022/01/30 10:52:56;;;;;;;68.97;4.13;;;;;;;7.43;100.00;98627.38;5081419;28;20605;-61
2022/01/30 10:55:40;;;;;;;40.73;3.50;;;;;;;7.52;100.00;98632.16;5071016;28;20598;-61
2022/01/30 10:58:10;;;;;;;45.37;3.23;;;;;;;7.40;100.00;98626.00;5080883;28;20598;-59
2022/01/30 11:00:42;;;;;;;75.40;4.50;;;;;;;7.47;100.00;98624.06;5081663;28;20626;-61
2022/01/30 11:03:11;;;;;;;67.20;3.70;;;;;;;7.52;100.00;98637.47;5078689;28;20599;-60
2022/01/30 11:05:59;;;;;;;51.70;3.27;;;;;;;7.50;100.00;98620.94;5077074;28;20650;-61
2022/01/30 11:08:29;;;;;;;30.20;2.10;;;;;;;7.49;100.00;98647.75;5071692;28;20626;-61
2022/01/30 11:11:03;;;;;;;50.17;3.20;;;;;;;7.43;100.00;98633.50;5079017;28;21137;-59
2022/01/30 11:13:33;;;;;;;23.23;2.60;;;;;;;7.46;100.00;98643.69;5081577;28;20617;-61
2022/01/30 11:18:43;;;;;;;49.20;3.33;;;;;;;7.65;100.00;98651.63;5077599;28;20656;-62
2022/01/30 11:21:10;;;;;;;25.07;2.30;;;;;;;7.70;100.00;98657.09;5081032;28;20652;-61
2022/01/30 11:23:41;;;;;;;52.83;3.40;;;;;;;7.64;100.00;98655.34;5081269;28;20625;-61
2022/01/30 11:26:09;;;;;;;31.80;2.80;;;;;;;7.65;99.81;98651.63;5078661;28;20650;-60
2022/01/30 11:28:37;;;;;;;56.03;2.80;;;;;;;7.61;97.38;98664.56;5077984;28;20645;-59
2022/01/30 11:31:04;;;;;;;62.03;3.30;;;;;;;7.55;94.35;98650.31;5079876;28;20594;-59
2022/01/30 11:33:31;;;;;;;43.33;2.40;;;;;;;7.53;94.04;98648.91;5081447;28;20632;-60
2022/01/30 11:35:59;;;;;;;37.20;2.20;;;;;;;7.56;93.46;98665.22;5079587;28;20601;-60
2022/01/30 11:38:26;;;;;;;61.63;3.97;;;;;;;7.56;95.37;98659.91;5077661;28;20603;-60
2022/01/30 11:41:14;;;;;;;74.03;4.70;;;;;;;7.70;97.88;98665.88;5078073;28;20618;-61
2022/01/30 11:43:41;;;;;;;69.87;4.43;;;;;;;7.60;96.06;98639.00;5080635;28;20621;-61
2022/01/30 11:46:15;;;;;;;45.37;2.63;;;;;;;7.66;97.82;98648.75;5077973;28;20645;-62
2022/01/30 11:48:42;;;;;;;31.87;2.37;;;;;;;7.63;99.41;98659.00;5077382;28;20641;-62
2022/01/30 11:51:09;;;;;;;76.80;4.80;;;;;;;7.62;97.84;98652.88;5079401;28;20597;-62
2022/01/30 11:53:37;;;;;;;48.70;2.50;;;;;;;7.46;100.00;98642.88;5080922;28;20609;-61
2022/01/30 11:56:05;;;;;;;63.90;4.37;;;;;;;7.69;100.00;98644.81;5078647;28;20594;-59
2022/01/30 11:58:56;;;;;;;58.23;3.70;;;;;;;7.76;98.28;98643.69;5076641;28;20602;-61
2022/01/30 12:01:36;;;;;;;25.60;2.10;;;;;;;7.68;98.05;98662.63;5070843;28;20682;-60
2022/01/30 12:04:13;;;;;;;40.73;2.50;;;;;;;7.60;98.85;98658.44;5079452;28;20606;-61
2022/01/30 12:06:47;;;;;;;62.87;4.20;;;;;;;7.74;98.39;98664.38;5082090;28;20653;-60
2022/01/30 12:09:31;;;;;;;64.77;3.97;;;;;;;7.78;99.38;98654.09;5073414;28;20606;-59